Time;durP1;ratioP1;P1;durP2;ratioP2;P2;SDS_P1;SDS_P2;PMS_P1;PMS_P2;Temp;Humidity;BMP_temperature;BMP_pressure;BME280_temperature;BME280_humidity;BME280_pressure;Samples;Min_cycle;Max_cycle;Signal;HPM_P1;HPM_P2
2022/04/06 00:00:38;;;;;;;3.75;2.77;;;8.90;99.90;;;;;;1917117;75;21105;-84
2022/04/06 00:03:29;;;;;;;3.42;2.70;;;8.90;99.90;;;;;;1901229;75;21154;-83
2022/04/06 00:06:21;;;;;;;3.60;2.83;;;8.90;99.90;;;;;;1902969;75;21132;-84
2022/04/06 00:09:14;;;;;;;6.00;2.95;;;8.90;99.90;;;;;;1895557;75;21071;-83
2022/04/06 00:14:47;;;;;;;4.58;2.87;;;8.70;99.90;;;;;;1959588;72;22161;-82
2022/04/06 00:17:56;;;;;;;4.28;3.10;;;8.80;99.90;;;;;;1917689;75;21105;-83
2022/04/06 00:21:06;;;;;;;3.42;2.60;;;8.70;99.90;;;;;;1917795;75;21515;-83
2022/04/06 00:23:58;;;;;;;4.78;3.10;;;8.60;99.90;;;;;;1917648;75;21143;-84
2022/04/06 00:26:49;;;;;;;4.65;2.50;;;8.50;99.90;;;;;;1937875;73;21550;-84
2022/04/06 00:29:41;;;;;;;5.20;3.15;;;8.50;99.90;;;;;;1930532;73;21127;-84
2022/04/06 00:32:32;;;;;;;3.27;2.83;;;8.50;99.90;;;;;;1917819;75;21087;-84
2022/04/06 00:38:04;;;;;;;6.25;2.90;;;8.50;99.90;;;;;;1934800;72;22145;-82
2022/04/06 00:41:13;;;;;;;3.80;2.60;;;8.40;99.90;;;;;;1897485;74;21198;-85
2022/04/06 00:44:23;;;;;;;4.83;3.27;;;8.40;99.90;;;;;;1895976;75;21603;-84
2022/04/06 00:47:15;;;;;;;3.55;3.10;;;8.30;99.90;;;;;;1915065;75;21084;-83
2022/04/06 00:52:56;;;;;;;3.92;2.95;;;8.30;99.90;;;;;;1948881;72;22292;-82
2022/04/06 00:56:06;;;;;;;3.95;2.95;;;8.30;99.90;;;;;;1911047;75;21183;-84
2022/04/06 00:59:17;;;;;;;3.60;2.70;;;8.20;99.90;;;;;;1895795;75;21050;-83
2022/04/06 01:02:09;;;;;;;5.42;2.87;;;8.20;99.90;;;;;;1897037;75;21128;-83
2022/04/06 01:07:46;;;;;;;3.72;2.58;;;8.10;99.90;;;;;;1933120;72;22091;-82
2022/04/06 01:10:57;;;;;;;3.40;2.83;;;8.10;99.90;;;;;;1896331;74;21059;-83
2022/04/06 01:14:06;;;;;;;7.22;4.70;;;8.10;99.90;;;;;;1895514;75;21039;-83
2022/04/06 01:17:01;;;;;;;7.60;6.00;;;8.00;99.90;;;;;;1916433;75;21215;-83
2022/04/06 01:19:53;;;;;;;7.30;5.72;;;8.00;99.90;;;;;;1898878;75;21158;-82
2022/04/06 01:22:44;;;;;;;7.45;6.33;;;8.00;99.90;;;;;;1899399;75;21063;-83
2022/04/06 01:25:38;;;;;;;9.35;5.75;;;8.00;99.90;;;;;;1887377;75;21106;-84
2022/04/06 01:28:28;;;;;;;8.85;5.97;;;8.00;99.90;;;;;;1911347;75;21125;-83
2022/04/06 01:31:20;;;;;;;7.70;5.78;;;7.90;99.90;;;;;;1897137;75;21054;-85
2022/04/06 01:34:11;;;;;;;5.87;4.65;;;7.90;99.90;;;;;;1884738;76;21147;-82
2022/04/06 01:37:04;;;;;;;8.53;5.03;;;7.80;99.90;;;;;;1883489;76;21513;-82
2022/04/06 01:39:55;;;;;;;7.53;4.78;;;7.80;99.90;;;;;;1907106;75;21098;-82
2022/04/06 01:42:47;;;;;;;7.35;4.90;;;7.80;99.90;;;;;;1884937;76;21109;-84
2022/04/06 01:45:39;;;;;;;5.97;4.70;;;7.80;99.90;;;;;;1893046;75;21102;-84
2022/04/06 01:48:30;;;;;;;6.53;5.10;;;7.80;99.90;;;;;;1896088;75;21051;-84
2022/04/06 01:54:01;;;;;;;10.70;5.15;;;7.70;99.90;;;;;;1954423;72;22226;-84
2022/04/06 01:57:11;;;;;;;4.35;3.80;;;7.70;99.90;;;;;;1919402;74;21576;-84
2022/04/06 02:00:21;;;;;;;5.17;3.05;;;7.70;99.90;;;;;;1903639;75;21180;-83
2022/04/06 02:03:12;;;;;;;3.90;2.67;;;7.70;99.90;;;;;;1917669;75;21048;-84
2022/04/06 02:06:04;;;;;;;3.15;2.70;;;7.70;99.90;;;;;;1895734;75;21084;-83
2022/04/06 02:08:56;;;;;;;4.47;3.12;;;7.70;99.90;;;;;;1914453;75;21495;-84
2022/04/06 02:11:47;;;;;;;3.92;3.02;;;7.70;99.90;;;;;;1907052;75;21051;-84
2022/04/06 02:14:40;;;;;;;3.40;3.02;;;7.60;99.90;;;;;;1884648;75;21625;-84
2022/04/06 02:20:13;;;;;;;6.25;3.47;;;7.60;99.90;;;;;;1932885;72;22227;-81
2022/04/06 02:23:25;;;;;;;4.37;2.98;;;7.60;99.90;;;;;;1908357;75;21149;-83
2022/04/06 02:26:35;;;;;;;5.30;3.20;;;7.50;99.90;;;;;;1916660;75;21560;-82
2022/04/06 02:29:26;;;;;;;4.08;2.85;;;7.40;99.90;;;;;;1917820;75;21058;-82
2022/04/06 02:32:17;;;;;;;5.45;2.90;;;7.40;99.90;;;;;;1896401;75;21051;-82
2022/04/06 02:35:11;;;;;;;4.03;3.15;;;7.40;99.90;;;;;;1895802;75;21082;-83
2022/04/06 02:38:02;;;;;;;5.10;3.42;;;7.50;99.90;;;;;;1906699;75;21055;-83
2022/04/06 02:40:53;;;;;;;6.10;3.33;;;7.40;99.90;;;;;;1902246;75;21193;-83
2022/04/06 02:43:44;;;;;;;3.55;3.10;;;7.40;99.90;;;;;;1891944;75;21083;-83
2022/04/06 02:46:36;;;;;;;5.42;3.17;;;7.30;99.90;;;;;;1908571;75;21106;-83
2022/04/06 02:49:28;;;;;;;5.47;3.17;;;7.20;99.90;;;;;;1906797;75;21090;-82
2022/04/06 02:54:58;;;;;;;3.62;3.12;;;7.20;99.90;;;;;;1946401;72;22182;-82
2022/04/06 02:58:08;;;;;;;6.92;3.60;;;7.20;99.90;;;;;;1916969;75;21047;-82
2022/04/06 03:03:56;;;;;;;4.15;2.95;;;7.20;99.90;;;;;;1957877;72;22212;-84
2022/04/06 03:07:06;;;;;;;5.53;3.10;;;7.10;99.90;;;;;;1917767;74;21176;-83
2022/04/06 03:12:54;;;;;;;3.98;3.30;;;7.00;99.90;;;;;;1963210;72;22185;-82
2022/04/06 03:18:49;;;;;;;3.15;2.85;;;7.10;99.90;;;;;;1932943;72;22193;-85
2022/04/06 03:21:59;;;;;;;3.17;2.87;;;7.00;99.90;;;;;;1906785;75;21105;-84
2022/04/06 03:27:48;;;;;;;4.35;3.08;;;7.00;99.90;;;;;;1976150;72;22573;-85
2022/04/06 03:33:41;;;;;;;4.45;3.45;;;7.00;99.90;;;;;;1933974;72;22143;-84
2022/04/06 03:36:51;;;;;;;4.87;3.00;;;6.90;99.90;;;;;;1896116;75;21145;-84
2022/04/06 03:40:01;;;;;;;4.78;3.42;;;6.90;99.90;;;;;;1892187;75;21112;-83
2022/04/06 03:42:53;;;;;;;5.62;3.20;;;6.90;99.90;;;;;;1900151;75;21175;-84
2022/04/06 03:48:23;;;;;;;4.47;3.15;;;6.90;99.90;;;;;;1956088;72;22114;-83
2022/04/06 03:51:33;;;;;;;4.60;2.90;;;6.90;99.90;;;;;;1932075;73;21055;-84
2022/04/06 03:54:46;;;;;;;4.70;2.50;;;6.90;99.90;;;;;;1917721;75;21131;-84
2022/04/06 03:57:35;;;;;;;5.20;3.08;;;6.90;99.90;;;;;;1910818;75;21121;-83
2022/04/06 04:03:10;;;;;;;4.62;3.35;;;6.90;99.90;;;;;;1941161;72;22316;-84
2022/04/06 04:06:29;;;;;;;4.12;3.05;;;6.90;99.90;;;;;;1904938;73;21082;-83
2022/04/06 04:09:39;;;;;;;6.12;3.60;;;6.80;99.90;;;;;;1889827;75;21110;-82
2022/04/06 04:12:30;;;;;;;5.65;3.02;;;6.70;99.90;;;;;;1903570;75;21440;-83
2022/04/06 04:15:22;;;;;;;5.87;3.42;;;6.70;99.90;;;;;;1888716;75;21087;-82
2022/04/06 04:18:14;;;;;;;4.10;3.50;;;6.60;99.90;;;;;;1904122;75;21091;-83
2022/04/06 04:23:49;;;;;;;5.17;3.72;;;6.50;99.90;;;;;;1975603;72;22154;-82
2022/04/06 04:26:59;;;;;;;5.95;3.67;;;6.50;99.90;;;;;;1909505;73;21098;-83
2022/04/06 04:30:10;;;;;;;6.03;3.70;;;6.50;99.90;;;;;;1927472;74;21119;-84
2022/04/06 04:33:02;;;;;;;5.70;4.03;;;6.50;99.90;;;;;;1904450;75;21107;-83
2022/04/06 04:38:31;;;;;;;4.53;3.62;;;6.60;99.90;;;;;;1944934;72;22197;-83
2022/04/06 04:41:43;;;;;;;6.10;3.72;;;6.60;99.90;;;;;;1906710;75;21105;-84
2022/04/06 04:44:53;;;;;;;5.05;3.95;;;6.60;99.90;;;;;;1894620;75;21140;-82
2022/04/06 04:47:44;;;;;;;5.55;4.05;;;6.60;99.90;;;;;;1905553;75;21131;-82
2022/04/06 04:50:35;;;;;;;7.50;3.95;;;6.60;99.90;;;;;;1899155;75;21097;-82
2022/04/06 04:53:27;;;;;;;5.08;3.90;;;6.60;99.90;;;;;;1901330;75;21156;-83
2022/04/06 04:56:19;;;;;;;7.40;4.53;;;6.60;99.90;;;;;;1917170;75;21079;-83
2022/04/06 04:59:10;;;;;;;5.40;3.67;;;6.60;99.90;;;;;;1894971;75;21186;-83
2022/04/06 05:02:02;;;;;;;5.80;3.50;;;6.70;99.90;;;;;;1916984;75;21094;-83
2022/04/06 05:04:53;;;;;;;8.03;4.22;;;6.70;99.90;;;;;;1898221;75;21094;-83
2022/04/06 05:07:45;;;;;;;6.37;3.95;;;6.70;99.90;;;;;;1883913;75;21199;-83
2022/04/06 05:10:36;;;;;;;5.28;3.80;;;6.80;99.90;;;;;;1906313;75;21059;-84
2022/04/06 05:13:28;;;;;;;4.35;3.67;;;6.80;99.90;;;;;;1916079;75;21136;-84
2022/04/06 05:16:21;;;;;;;6.17;3.72;;;6.80;99.90;;;;;;1907295;75;21150;-84
2022/04/06 05:19:13;;;;;;;7.28;3.65;;;6.70;99.90;;;;;;1884667;75;21184;-84
2022/04/06 05:22:06;;;;;;;7.00;3.55;;;6.70;99.90;;;;;;1911116;75;21576;-84
2022/04/06 05:24:59;;;;;;;5.20;3.65;;;6.70;99.90;;;;;;1906409;75;21102;-83
2022/04/06 05:27:51;;;;;;;6.85;3.70;;;6.70;99.90;;;;;;1900949;75;21127;-84
2022/04/06 05:30:42;;;;;;;8.58;3.72;;;6.70;99.90;;;;;;1904941;75;21116;-84
2022/04/06 05:33:34;;;;;;;5.45;3.55;;;6.80;99.90;;;;;;1912652;75;21099;-84
2022/04/06 05:36:28;;;;;;;5.92;3.95;;;6.80;99.90;;;;;;1911054;75;21109;-83
2022/04/06 05:39:19;;;;;;;6.67;3.80;;;6.90;99.90;;;;;;1932307;74;21206;-83
2022/04/06 05:44:50;;;;;;;3.75;3.20;;;6.90;99.90;;;;;;1969772;72;22160;-83
2022/04/06 05:48:00;;;;;;;7.85;3.50;;;7.00;99.90;;;;;;1921149;73;21153;-82
2022/04/06 05:51:10;;;;;;;8.50;3.58;;;6.90;99.90;;;;;;1924564;73;21120;-83
2022/04/06 05:54:02;;;;;;;4.42;3.67;;;6.90;99.90;;;;;;1916998;75;21117;-83
2022/04/06 05:56:53;;;;;;;4.97;3.72;;;7.00;99.90;;;;;;1925149;73;21075;-83
2022/04/06 05:59:45;;;;;;;6.05;4.20;;;7.10;99.90;;;;;;1916920;75;21063;-83
2022/04/06 06:02:39;;;;;;;9.08;4.00;;;7.20;99.90;;;;;;1916622;75;21101;-82
2022/04/06 06:05:31;;;;;;;6.62;4.00;;;7.20;99.90;;;;;;1922776;73;21086;-85
2022/04/06 06:11:03;;;;;;;5.30;3.83;;;7.40;99.90;;;;;;1941290;72;22213;-84
2022/04/06 06:14:13;;;;;;;4.15;3.37;;;7.40;99.90;;;;;;1891824;75;21120;-83
2022/04/06 06:17:24;;;;;;;5.03;3.85;;;7.40;99.90;;;;;;1906326;75;21128;-83
2022/04/06 06:20:16;;;;;;;8.15;3.83;;;7.40;99.90;;;;;;1914727;75;21074;-83
2022/04/06 06:23:08;;;;;;;9.35;4.03;;;7.50;99.90;;;;;;1913915;75;21094;-85
2022/04/06 06:28:39;;;;;;;7.22;3.92;;;7.50;99.90;;;;;;1936737;72;22180;-84
2022/04/06 06:31:49;;;;;;;5.87;4.15;;;7.60;99.90;;;;;;1898442;75;21088;-83
2022/04/06 06:34:59;;;;;;;6.97;4.17;;;7.50;99.90;;;;;;1888328;75;21074;-84
2022/04/06 06:40:30;;;;;;;7.30;4.53;;;7.40;99.90;;;;;;1961631;72;22186;-83
2022/04/06 06:43:40;;;;;;;8.90;4.05;;;7.40;99.90;;;;;;1929794;73;21117;-84
2022/04/06 06:46:49;;;;;;;7.28;4.80;;;7.50;99.90;;;;;;1937432;73;21104;-83
2022/04/06 06:49:46;;;;;;;7.85;4.78;;;7.50;99.90;;;;;;1921825;73;21542;-83
2022/04/06 06:52:35;;;;;;;10.55;5.53;;;7.50;99.90;;;;;;1922740;73;21184;-83
2022/04/06 06:58:06;;;;;;;7.92;4.97;;;7.60;99.90;;;;;;1942027;72;22193;-82
2022/04/06 07:01:16;;;;;;;9.33;5.42;;;7.70;99.90;;;;;;1924330;74;21105;-85
2022/04/06 07:04:26;;;;;;;7.72;4.90;;;7.80;99.90;;;;;;1903984;75;21103;-84
2022/04/06 07:07:18;;;;;;;6.70;4.90;;;7.90;99.90;;;;;;1906322;74;21175;-84
2022/04/06 07:12:49;;;;;;;6.97;5.03;;;7.90;99.90;;;;;;1941326;72;22302;-84
2022/04/06 07:15:58;;;;;;;7.55;5.25;;;8.00;99.90;;;;;;1916804;75;21066;-84
2022/04/06 07:19:09;;;;;;;7.60;4.92;;;8.00;99.90;;;;;;1906140;75;21161;-84
2022/04/06 07:22:00;;;;;;;5.95;5.12;;;8.10;99.90;;;;;;1910496;74;21364;-83
2022/04/06 07:24:51;;;;;;;11.57;5.55;;;8.20;99.90;;;;;;1898625;74;21170;-83
2022/04/06 07:27:42;;;;;;;13.78;5.35;;;8.30;99.90;;;;;;1908073;74;21042;-84
2022/04/06 07:30:34;;;;;;;11.10;6.58;;;8.40;99.90;;;;;;1906721;74;21100;-84
2022/04/06 07:33:25;;;;;;;17.90;6.53;;;8.40;99.90;;;;;;1909683;75;21155;-83
2022/04/06 07:36:18;;;;;;;11.68;6.92;;;8.50;99.90;;;;;;1900451;75;21047;-83
2022/04/06 07:39:09;;;;;;;16.50;6.17;;;8.60;99.90;;;;;;1916483;75;21341;-83
2022/04/06 07:42:01;;;;;;;11.05;6.35;;;8.70;99.90;;;;;;1897537;75;21176;-83
2022/04/06 07:44:53;;;;;;;13.20;6.42;;;8.70;99.90;;;;;;1906320;75;21161;-83
2022/04/06 07:47:47;;;;;;;14.85;7.45;;;8.80;99.90;;;;;;1902678;74;21277;-86
2022/04/06 07:53:18;;;;;;;10.55;7.45;;;8.90;99.90;;;;;;1946145;72;22727;-84
2022/04/06 08:01:47;;;;;;;13.88;7.58;;;9.00;99.90;;;;;;1940541;72;22174;-84
2022/04/06 08:07:43;;;;;;;10.23;7.67;;;9.10;99.90;;;;;;1948614;72;22175;-87
2022/04/06 08:10:51;;;;;;;12.13;8.13;;;9.20;99.90;;;;;;1910121;75;21131;-85
2022/04/06 08:16:41;;;;;;;11.83;7.53;;;9.40;99.90;;;;;;1934556;72;22197;-84
2022/04/06 08:19:52;;;;;;;12.13;7.70;;;9.40;99.90;;;;;;1888652;75;21187;-79
2022/04/06 08:23:04;;;;;;;11.20;7.40;;;9.50;99.90;;;;;;1901996;75;21593;-81
2022/04/06 08:28:44;;;;;;;11.15;7.78;;;9.70;99.90;;;;;;1949436;72;22194;-83
2022/04/06 08:32:04;;;;;;;11.10;6.62;;;9.80;99.90;;;;;;1925674;73;21708;-82
2022/04/06 08:35:27;;;;;;;11.53;6.70;;;9.80;99.90;;;;;;1916720;75;21091;-82
2022/04/06 08:38:26;;;;;;;9.33;7.28;;;9.90;99.90;;;;;;1942374;73;21160;-82
2022/04/06 08:41:26;;;;;;;10.80;7.45;;;10.00;99.90;;;;;;1940272;73;21163;-82
2022/04/06 08:44:18;;;;;;;12.75;8.70;;;10.00;99.90;;;;;;1928826;73;21179;-82
2022/04/06 08:50:00;;;;;;;9.43;6.47;;;10.20;99.90;;;;;;1962651;72;22170;-82
2022/04/06 08:53:10;;;;;;;8.75;6.75;;;10.20;99.90;;;;;;1926458;73;21113;-82
2022/04/06 08:56:21;;;;;;;9.80;7.83;;;10.30;99.90;;;;;;1919458;73;21098;-82
2022/04/06 08:59:13;;;;;;;7.90;6.70;;;10.30;99.90;;;;;;1916924;75;21195;-83
2022/04/06 09:02:05;;;;;;;10.75;7.30;;;10.40;99.90;;;;;;1933507;73;21188;-81
2022/04/06 09:04:59;;;;;;;11.38;7.03;;;10.50;99.90;;;;;;1925073;73;21052;-82
2022/04/06 09:07:52;;;;;;;8.50;7.47;;;10.50;99.90;;;;;;1929634;73;21090;-81
2022/04/06 09:10:44;;;;;;;7.72;6.50;;;10.60;99.90;;;;;;1918511;73;21141;-82
2022/04/06 09:13:36;;;;;;;7.33;6.10;;;10.60;99.90;;;;;;1934224;73;21055;-81
2022/04/06 09:16:31;;;;;;;6.62;5.50;;;10.70;99.90;;;;;;1916729;75;21657;-81
2022/04/06 09:19:23;;;;;;;9.65;5.70;;;10.80;99.90;;;;;;1929275;73;21059;-81
2022/04/06 09:25:00;;;;;;;7.17;5.40;;;11.10;99.90;;;;;;1952947;72;22296;-83
2022/04/06 09:28:12;;;;;;;6.33;5.50;;;11.20;99.90;;;;;;1933942;73;21155;-82
2022/04/06 09:31:22;;;;;;;6.67;5.17;;;11.30;99.90;;;;;;1937026;73;21155;-82
2022/04/06 09:34:14;;;;;;;7.50;5.15;;;11.40;99.90;;;;;;1931889;73;21545;-81
2022/04/06 09:37:23;;;;;;;8.90;5.72;;;11.40;99.90;;;;;;1927578;73;21094;-82
2022/04/06 09:40:17;;;;;;;8.83;6.62;;;11.50;99.90;;;;;;1929853;73;21043;-82
2022/04/06 09:43:09;;;;;;;7.08;5.47;;;11.60;99.90;;;;;;1941203;73;21148;-82
2022/04/06 09:48:55;;;;;;;9.35;6.33;;;11.70;99.90;;;;;;1943338;72;22723;-84
2022/04/06 09:52:06;;;;;;;7.75;6.28;;;11.70;99.90;;;;;;1897521;75;21126;-82
2022/04/06 09:55:18;;;;;;;9.85;6.20;;;11.70;99.90;;;;;;1899374;75;21099;-82
2022/04/06 09:58:12;;;;;;;8.40;6.20;;;11.90;99.90;;;;;;1906239;75;21159;-83
2022/04/06 10:01:04;;;;;;;5.40;4.70;;;12.00;99.90;;;;;;1869741;76;21308;-82
2022/04/06 10:03:59;;;;;;;8.25;4.25;;;12.20;99.90;;;;;;1905917;75;21094;-82
2022/04/06 10:06:51;;;;;;;5.58;4.47;;;12.30;99.90;;;;;;1947483;73;21047;-82
2022/04/06 10:09:43;;;;;;;9.70;4.87;;;12.30;99.90;;;;;;1896399;75;21220;-82
2022/04/06 10:12:36;;;;;;;6.72;5.00;;;12.40;99.90;;;;;;1905654;75;21137;-82
2022/04/06 10:15:30;;;;;;;7.50;4.90;;;12.50;99.90;;;;;;1892261;75;21126;-82
2022/04/06 10:18:21;;;;;;;8.75;5.50;;;12.60;99.90;;;;;;1903156;75;21098;-83
2022/04/06 10:21:16;;;;;;;7.25;5.10;;;12.70;99.90;;;;;;1890857;75;21059;-82
2022/04/06 10:24:25;;;;;;;6.87;5.22;;;12.80;99.90;;;;;;1892230;75;21093;-82
2022/04/06 10:27:21;;;;;;;8.35;4.87;;;13.00;99.90;;;;;;1906019;75;21188;-84
2022/04/06 10:30:19;;;;;;;8.20;4.60;;;12.90;99.90;;;;;;1906171;75;21088;-83
2022/04/06 10:33:24;;;;;;;6.78;4.72;;;13.10;99.90;;;;;;1905757;75;21574;-82
2022/04/06 10:36:26;;;;;;;5.92;4.83;;;13.10;99.90;;;;;;1896602;73;21183;-83
2022/04/06 10:39:18;;;;;;;5.25;3.72;;;13.20;99.90;;;;;;1911616;75;21099;-83
2022/04/06 10:42:19;;;;;;;5.75;4.10;;;13.30;99.90;;;;;;1894705;75;21643;-83
2022/04/06 10:48:18;;;;;;;5.80;4.30;;;13.40;99.90;;;;;;1950672;72;38552;-84
2022/04/06 10:51:34;;;;;;;4.35;3.42;;;13.50;99.90;;;;;;1916681;75;21131;-82
2022/04/06 10:54:45;;;;;;;5.87;4.12;;;13.50;99.90;;;;;;1916856;75;21095;-82
2022/04/06 10:57:58;;;;;;;4.35;3.65;;;13.50;99.90;;;;;;1916820;75;21082;-82
2022/04/06 11:01:10;;;;;;;4.35;3.47;;;13.60;99.90;;;;;;1916954;75;21565;-83
2022/04/06 11:04:09;;;;;;;4.40;3.67;;;13.60;99.90;;;;;;1937350;73;21098;-82
2022/04/06 11:07:01;;;;;;;10.20;4.37;;;13.60;99.90;;;;;;1917150;73;21082;-82
2022/04/06 11:10:09;;;;;;;4.28;2.92;;;13.60;99.90;;;;;;1916954;75;21094;-83
2022/04/06 11:13:03;;;;;;;7.80;3.55;;;13.60;99.90;;;;;;1884094;76;21281;-82
2022/04/06 11:15:54;;;;;;;4.97;3.60;;;13.80;99.90;;;;;;1906274;75;21228;-82
2022/04/06 11:21:28;;;;;;;5.08;3.90;;;13.80;99.90;;;;;;1947230;72;22209;-81
2022/04/06 11:24:39;;;;;;;7.12;3.85;;;13.90;99.90;;;;;;1890520;75;21152;-83
2022/04/06 11:27:49;;;;;;;8.20;3.72;;;14.00;99.90;;;;;;1883453;75;21099;-83
2022/04/06 11:30:44;;;;;;;6.30;4.17;;;14.00;99.90;;;;;;1889181;75;21135;-83
2022/04/06 11:33:43;;;;;;;5.50;3.72;;;14.10;99.90;;;;;;1882437;75;21129;-83
2022/04/06 11:36:38;;;;;;;7.58;3.67;;;14.10;99.90;;;;;;1885266;73;21118;-83
2022/04/06 11:39:31;;;;;;;6.30;3.40;;;14.20;99.90;;;;;;1883346;75;21116;-83
2022/04/06 11:42:23;;;;;;;4.55;3.58;;;14.30;99.90;;;;;;1887785;75;21152;-84
2022/04/06 11:47:56;;;;;;;6.00;3.33;;;14.30;99.90;;;;;;1949999;72;22236;-85
2022/04/06 11:51:06;;;;;;;7.17;3.62;;;14.40;99.90;;;;;;1906338;75;21172;-84
2022/04/06 11:54:19;;;;;;;6.92;3.02;;;14.30;99.90;;;;;;1883943;75;21531;-84
2022/04/06 11:57:10;;;;;;;4.22;2.92;;;14.30;99.90;;;;;;1884007;75;21099;-83
2022/04/06 12:00:03;;;;;;;4.15;3.33;;;14.40;99.90;;;;;;1883399;75;21164;-83
2022/04/06 12:02:57;;;;;;;6.28;3.40;;;14.40;99.90;;;;;;1892038;75;21187;-83
2022/04/06 12:05:49;;;;;;;5.20;2.90;;;14.40;99.90;;;;;;1909023;73;21128;-83
2022/04/06 12:08:41;;;;;;;4.83;3.20;;;14.60;99.90;;;;;;1922789;73;21114;-83
2022/04/06 12:11:33;;;;;;;4.62;3.42;;;14.50;99.90;;;;;;1898393;73;21152;-84
2022/04/06 12:14:25;;;;;;;4.17;3.00;;;14.60;99.90;;;;;;1898417;73;21470;-83
2022/04/06 12:17:17;;;;;;;4.70;3.05;;;14.60;99.90;;;;;;1884015;75;21586;-84
2022/04/06 12:23:09;;;;;;;4.62;3.25;;;14.80;99.90;;;;;;1946449;72;22203;-83
2022/04/06 12:26:19;;;;;;;4.25;2.80;;;14.70;99.90;;;;;;1882150;75;21160;-84
2022/04/06 12:29:29;;;;;;;4.58;2.67;;;15.00;99.90;;;;;;1900253;75;21083;-84
2022/04/06 12:32:23;;;;;;;2.90;2.25;;;15.00;99.90;;;;;;1872281;75;21086;-83
2022/04/06 12:35:25;;;;;;;3.15;2.60;;;14.80;99.90;;;;;;1909360;73;21042;-83
2022/04/06 12:38:19;;;;;;;3.12;2.55;;;14.90;99.90;;;;;;1858174;77;21110;-83
2022/04/06 12:41:12;;;;;;;5.78;2.70;;;14.80;99.90;;;;;;1894501;73;21947;-83
2022/04/06 12:44:08;;;;;;;3.60;2.37;;;14.90;99.90;;;;;;1916286;73;21557;-83
2022/04/06 12:47:01;;;;;;;5.40;2.83;;;14.90;99.90;;;;;;1885195;75;21118;-83
2022/04/06 12:49:53;;;;;;;3.33;2.27;;;14.90;99.90;;;;;;1883162;75;21052;-83
2022/04/06 12:52:47;;;;;;;3.70;2.35;;;15.00;99.90;;;;;;1882986;75;21216;-82
2022/04/06 12:55:38;;;;;;;4.90;2.30;;;14.80;99.90;;;;;;1884170;75;21098;-83
2022/04/06 12:58:30;;;;;;;4.92;2.55;;;14.90;99.90;;;;;;1871789;75;22208;-83
2022/04/06 13:01:22;;;;;;;5.25;2.50;;;14.90;99.90;;;;;;1881240;73;21140;-83
2022/04/06 13:04:13;;;;;;;3.90;2.50;;;15.10;99.90;;;;;;1880417;75;21123;-84
2022/04/06 13:07:07;;;;;;;3.02;2.10;;;15.10;99.90;;;;;;1904200;73;21138;-84
2022/04/06 13:10:01;;;;;;;3.20;2.27;;;15.00;99.90;;;;;;1872529;76;21145;-83
2022/04/06 13:12:53;;;;;;;4.85;2.25;;;15.00;99.90;;;;;;1891513;73;21143;-84
2022/04/06 13:15:45;;;;;;;3.10;2.02;;;15.00;99.90;;;;;;1894400;75;21177;-88
2022/04/06 13:18:37;;;;;;;6.67;2.65;;;15.10;99.90;;;;;;1874252;74;21094;-86
2022/04/06 13:21:33;;;;;;;4.85;2.15;;;15.20;99.90;;;;;;1850254;77;21129;-87
2022/04/06 13:24:24;;;;;;;3.98;2.10;;;15.20;99.90;;;;;;1882200;74;21232;-88
2022/04/06 13:27:17;;;;;;;2.27;2.00;;;15.20;99.90;;;;;;1846535;77;21586;-86
2022/04/06 13:30:11;;;;;;;4.33;1.98;;;15.30;99.90;;;;;;1879289;75;21128;-86
2022/04/06 13:33:03;;;;;;;3.05;2.02;;;15.20;99.90;;;;;;1893361;75;21125;-86
2022/04/06 13:35:55;;;;;;;5.33;1.65;;;15.30;99.90;;;;;;1903794;75;21152;-86
2022/04/06 13:38:47;;;;;;;4.67;1.75;;;15.40;99.90;;;;;;1882937;75;21495;-85
2022/04/06 13:41:39;;;;;;;3.87;1.77;;;15.20;99.90;;;;;;1886254;74;21089;-85
2022/04/06 13:44:32;;;;;;;2.50;1.62;;;15.30;99.90;;;;;;1837447;77;21117;-86
2022/04/06 13:52:02;;;;;;;1.90;1.30;;;15.40;99.90;;;;;;1833548;75;21111;-86
2022/04/06 13:54:56;;;;;;;1.30;1.10;;;15.60;99.90;;;;;;1871484;75;21527;-86
2022/04/06 13:57:48;;;;;;;2.70;1.67;;;15.70;99.90;;;;;;1878448;75;21056;-86
2022/04/06 14:00:41;;;;;;;2.33;1.45;;;15.80;99.90;;;;;;1898436;74;21147;-86
2022/04/06 14:03:33;;;;;;;2.80;1.57;;;15.90;99.90;;;;;;1892515;74;21080;-87
2022/04/06 14:06:24;;;;;;;4.03;1.60;;;15.90;99.90;;;;;;1885026;75;21471;-86
2022/04/06 14:09:17;;;;;;;1.75;1.20;;;15.80;99.90;;;;;;1883419;74;21137;-85
2022/04/06 14:12:15;;;;;;;2.12;1.40;;;16.00;99.90;;;;;;1897975;74;21090;-87
2022/04/06 14:15:07;;;;;;;2.40;1.50;;;16.20;99.90;;;;;;1881856;75;21115;-86
2022/04/06 14:17:59;;;;;;;1.90;1.10;;;16.60;99.90;;;;;;1887188;75;21087;-85
2022/04/06 14:20:52;;;;;;;2.10;1.02;;;17.20;99.90;;;;;;1872375;75;21563;-87
2022/04/06 14:23:44;;;;;;;2.60;1.25;;;17.50;99.90;;;;;;1879391;75;21204;-86
2022/04/06 14:26:38;;;;;;;2.15;1.22;;;17.50;99.90;;;;;;1878302;75;21050;-86
2022/04/06 14:29:30;;;;;;;2.45;1.40;;;17.70;99.90;;;;;;1889625;75;21098;-87
2022/04/06 14:32:22;;;;;;;2.52;1.35;;;17.70;99.90;;;;;;1884997;75;21111;-86
2022/04/06 14:35:18;;;;;;;2.77;1.40;;;17.90;99.90;;;;;;1884682;75;21095;-85
2022/04/06 14:38:11;;;;;;;2.98;1.70;;;18.00;99.90;;;;;;1879015;73;21055;-85
2022/04/06 14:41:05;;;;;;;3.25;1.52;;;17.60;99.90;;;;;;1880942;73;21167;-83
2022/04/06 14:43:55;;;;;;;1.60;1.40;;;17.10;99.90;;;;;;1907291;73;21192;-84
2022/04/06 14:46:46;;;;;;;2.45;1.30;;;17.10;99.90;;;;;;1882951;75;21530;-85
2022/04/06 14:49:38;;;;;;;2.00;1.30;;;17.00;99.90;;;;;;1885582;75;21044;-84
2022/04/06 14:52:30;;;;;;;2.70;1.40;;;16.90;99.90;;;;;;1886452;75;21122;-83
2022/04/06 14:55:22;;;;;;;2.70;1.07;;;16.80;99.90;;;;;;1888240;74;21193;-83
2022/04/06 14:58:14;;;;;;;2.12;1.10;;;16.80;99.90;;;;;;1885575;75;21141;-83
2022/04/06 15:01:07;;;;;;;2.17;1.35;;;16.80;99.90;;;;;;1877662;75;21137;-83
2022/04/06 15:04:02;;;;;;;1.32;1.00;;;16.80;99.90;;;;;;1894319;75;21130;-84
2022/04/06 15:06:53;;;;;;;1.65;1.37;;;17.00;99.90;;;;;;1871693;77;21216;-83
2022/04/06 15:09:48;;;;;;;1.47;0.98;;;17.30;99.90;;;;;;1871951;74;21165;-83
2022/04/06 15:12:41;;;;;;;1.52;1.30;;;17.30;99.90;;;;;;1905262;74;21038;-83
2022/04/06 15:15:32;;;;;;;2.20;1.30;;;17.40;99.90;;;;;;1842602;77;21152;-84
2022/04/06 15:18:24;;;;;;;2.20;1.12;;;17.70;99.90;;;;;;1882034;75;21084;-83
2022/04/06 15:21:17;;;;;;;2.87;1.20;;;17.60;99.90;;;;;;1887688;75;21102;-83
2022/04/06 15:24:12;;;;;;;3.08;1.22;;;17.70;99.90;;;;;;1887015;73;21079;-82
2022/04/06 15:27:04;;;;;;;1.37;1.15;;;17.40;99.90;;;;;;1892748;76;21105;-83
2022/04/06 15:29:55;;;;;;;1.50;1.30;;;17.20;99.90;;;;;;1888059;74;21070;-82
2022/04/06 15:32:49;;;;;;;1.98;0.80;;;16.90;99.90;;;;;;1901103;74;21204;-83
2022/04/06 15:38:50;;;;;;;1.32;0.98;;;16.70;99.90;;;;;;1885719;75;21109;-82
2022/04/06 15:41:43;;;;;;;1.40;1.05;;;16.70;99.90;;;;;;1849361;75;21101;-82
2022/04/06 15:44:35;;;;;;;1.65;0.98;;;16.60;99.90;;;;;;1880771;75;21139;-82
2022/04/06 15:47:29;;;;;;;1.15;0.90;;;16.50;99.90;;;;;;1890392;75;21201;-83
2022/04/06 15:50:21;;;;;;;1.72;1.05;;;16.50;99.90;;;;;;1890344;75;21092;-82
2022/04/06 15:53:13;;;;;;;1.60;1.10;;;16.50;99.90;;;;;;1893698;75;21123;-82
2022/04/06 15:56:06;;;;;;;1.10;0.90;;;16.50;99.90;;;;;;1869490;74;21161;-82
2022/04/06 15:59:00;;;;;;;2.37;1.32;;;16.50;99.90;;;;;;1893854;75;21101;-81
2022/04/06 16:01:52;;;;;;;3.42;1.40;;;16.40;99.90;;;;;;1852721;77;21098;-83
2022/04/06 16:04:44;;;;;;;2.20;1.20;;;16.30;99.90;;;;;;1879102;75;21121;-82
2022/04/06 16:07:36;;;;;;;1.45;1.07;;;16.30;99.90;;;;;;1872128;75;21503;-83
2022/04/06 16:10:28;;;;;;;1.72;1.20;;;16.20;99.90;;;;;;1872284;75;21047;-82
2022/04/06 16:13:20;;;;;;;3.37;1.10;;;16.30;99.90;;;;;;1889948;75;21119;-82
2022/04/06 16:16:14;;;;;;;2.15;1.10;;;16.30;99.90;;;;;;1871927;77;21202;-82
2022/04/06 16:19:06;;;;;;;1.42;1.00;;;16.30;99.90;;;;;;1901385;75;21526;-82
2022/04/06 16:22:01;;;;;;;1.50;1.02;;;16.30;99.90;;;;;;1846758;77;21086;-82
2022/04/06 16:24:53;;;;;;;2.15;1.30;;;16.30;99.90;;;;;;1890680;74;21133;-82
2022/04/06 16:27:45;;;;;;;1.98;1.10;;;16.20;99.90;;;;;;1881534;76;21099;-82
2022/04/06 16:30:37;;;;;;;2.02;1.25;;;16.10;99.90;;;;;;1872014;77;21063;-82
2022/04/06 16:33:29;;;;;;;2.35;1.40;;;16.10;99.90;;;;;;1893534;75;21095;-82
2022/04/06 16:36:23;;;;;;;1.45;1.30;;;16.00;99.90;;;;;;1893531;75;21163;-82
2022/04/06 16:39:16;;;;;;;1.75;1.27;;;16.00;99.90;;;;;;1872053;74;21170;-81
2022/04/06 16:42:08;;;;;;;1.82;1.50;;;16.10;99.90;;;;;;1884615;75;21055;-81
2022/04/06 16:45:00;;;;;;;2.05;1.50;;;16.10;99.90;;;;;;1896564;75;21229;-81
2022/04/06 16:47:52;;;;;;;1.80;1.30;;;16.20;99.90;;;;;;1893350;75;21153;-81
2022/04/06 16:53:55;;;;;;;2.15;1.67;;;16.20;99.90;;;;;;1889520;75;21043;-82
2022/04/06 16:56:47;;;;;;;2.55;1.95;;;16.00;99.90;;;;;;1884312;75;21095;-82
2022/04/06 16:59:39;;;;;;;2.98;1.87;;;16.00;99.90;;;;;;1882466;75;21145;-82
2022/04/06 17:02:31;;;;;;;2.47;1.70;;;15.90;99.90;;;;;;1901243;75;21156;-82
2022/04/06 17:05:24;;;;;;;2.40;1.57;;;15.90;99.90;;;;;;1871864;77;21739;-82
2022/04/06 17:08:23;;;;;;;2.35;1.60;;;15.80;99.90;;;;;;1872176;76;21107;-81